Gulbeniz A — TCZK8 — position and weather

sailwx.info

Track history (hours):
 
Tides and Currents Weather Stations Pressure Air Temp Water Temp Dewpoint Dewpoint Depression Visibility Wind Speed Wind Dir Waves Ship Positions

Gulbeniz A

Last reported at 2014-Aug-28 20:32 UTC. Time now 2014-Sep-30 16:01 UTC.
Position N 31°37' W 011°02'.
Warning: this ship's position is 32 days out of date.

Length 210 m; draft 10.8 m.

Type: Ship (hazmat cat A). MMSI: 271042493.

Date/timePositionNaut miles runAvg speedWind from/ knotsBaromVisibWave heightAir tempDewpointWater temp
2014-Aug-28 20:32N 31°37' W 011°02'1414.4
2014-Aug-28 19:33N 31°48' W 010°52'1514.2
2014-Aug-28 18:31N 32°00' W 010°42'1414.0
2014-Aug-28 17:31N 32°12' W 010°32'1414.2
2014-Aug-28 16:33N 32°22' W 010°23'1514.6
2014-Aug-28 15:30N 32°35' W 010°12'6015.1
2014-Aug-28 11:33N 33°23' W 009°30'11414.3
2014-Aug-28 03:33N 34°39' W 007°46'1413.8
2014-Aug-28 02:33N 34°48' W 007°34'1414.0
2014-Aug-28 01:33N 34°57' W 007°22'1413.7
2014-Aug-28 00:33N 35°06' W 007°09'1414.0
2014-Aug-27 23:33N 35°16' W 006°57'  
2014-Aug-22 22:11N 36°36' W 001°57'1214.0
2014-Aug-22 21:20N 36°43' W 001°46'1113.9
2014-Aug-22 20:33N 36°51' W 001°36'1413.8
2014-Aug-22 19:33N 36°60' W 001°23'1514.2
2014-Aug-22 18:31N 37°10' W 001°09'1414.5
2014-Aug-22 17:32N 37°19' W 000°56'1414.1
2014-Aug-22 16:33N 37°29' W 000°43'1414.1
2014-Aug-22 15:34N 37°38' W 000°30'1514.6
2014-Aug-22 14:33N 37°50' W 000°20'1514.7
2014-Aug-22 13:33N 38°03' W 000°10'1614.6
2014-Aug-22 12:26N 38°17' E 000°01'1314.8
2014-Aug-22 11:32N 38°28' E 000°11'2512.7
2014-Aug-22 09:33N 38°52' E 000°18'113 3.1
2014-Aug-20 21:31N 40°41' E 001°02'1414.6
2014-Aug-20 20:31N 40°54' E 001°08'12 2.9
2014-Aug-20 16:33N 41°05' E 001°13'9 7.1
2014-Aug-20 15:19N 40°57' E 001°10'1215.6
2014-Aug-20 14:32N 40°45' E 001°07'1615.8
2014-Aug-20 13:33N 40°30' E 001°03'1615.8
2014-Aug-20 12:33N 40°14' E 000°58'1616.0
2014-Aug-20 11:33N 39°58' E 000°54'14914.9
2014-Aug-20 01:33N 37°42' W 000°23'1414.5
2014-Aug-20 00:33N 37°31' W 000°35'1414.4
2014-Aug-19 23:33N 37°21' W 000°49'3014.5
2014-Aug-19 21:28N 37°01' W 001°17'1814.8
2014-Aug-19 20:14N 36°49' W 001°34'2414.7
2014-Aug-19 18:33N 36°31' W 001°55'16315.5
2014-Aug-19 08:03N 36°01' W 005°14'816.2
2014-Aug-19 07:33N 35°59' W 005°23'9114.5
2014-Aug-19 01:18N 35°11' W 006°58'  
Track history (hours):
 
Tides and Currents Weather Stations Pressure Air Temp Water Temp Dewpoint Dewpoint Depression Visibility Wind Speed Wind Dir Waves Ship Positions

Gulbeniz A

Last reported at 2014-Aug-28 20:32 UTC. Time now 2014-Sep-30 16:01 UTC.
Position N 31°37' W 011°02'.
Warning: this ship's position is 32 days out of date.

Length 210 m; draft 10.8 m.

Type: Ship (hazmat cat A). MMSI: 271042493.

Date/timePositionNaut miles runAvg speedWind from/ knotsBaromVisibWave heightAir tempDewpointWater temp
2014-Aug-28 20:32N 31°37' W 011°02'1414.4
2014-Aug-28 19:33N 31°48' W 010°52'1514.2
2014-Aug-28 18:31N 32°00' W 010°42'1414.0
2014-Aug-28 17:31N 32°12' W 010°32'1414.2
2014-Aug-28 16:33N 32°22' W 010°23'1514.6
2014-Aug-28 15:30N 32°35' W 010°12'6015.1
2014-Aug-28 11:33N 33°23' W 009°30'11414.3
2014-Aug-28 03:33N 34°39' W 007°46'1413.8
2014-Aug-28 02:33N 34°48' W 007°34'1414.0
2014-Aug-28 01:33N 34°57' W 007°22'1413.7
2014-Aug-28 00:33N 35°06' W 007°09'1414.0
2014-Aug-27 23:33N 35°16' W 006°57'  
2014-Aug-22 22:11N 36°36' W 001°57'1214.0
2014-Aug-22 21:20N 36°43' W 001°46'1113.9
2014-Aug-22 20:33N 36°51' W 001°36'1413.8
2014-Aug-22 19:33N 36°60' W 001°23'1514.2
2014-Aug-22 18:31N 37°10' W 001°09'1414.5
2014-Aug-22 17:32N 37°19' W 000°56'1414.1
2014-Aug-22 16:33N 37°29' W 000°43'1414.1
2014-Aug-22 15:34N 37°38' W 000°30'1514.6
2014-Aug-22 14:33N 37°50' W 000°20'1514.7
2014-Aug-22 13:33N 38°03' W 000°10'1614.6
2014-Aug-22 12:26N 38°17' E 000°01'1314.8
2014-Aug-22 11:32N 38°28' E 000°11'2512.7
2014-Aug-22 09:33N 38°52' E 000°18'113 3.1
2014-Aug-20 21:31N 40°41' E 001°02'1414.6
2014-Aug-20 20:31N 40°54' E 001°08'12 2.9
2014-Aug-20 16:33N 41°05' E 001°13'9 7.1
2014-Aug-20 15:19N 40°57' E 001°10'1215.6
2014-Aug-20 14:32N 40°45' E 001°07'1615.8
2014-Aug-20 13:33N 40°30' E 001°03'1615.8
2014-Aug-20 12:33N 40°14' E 000°58'1616.0
2014-Aug-20 11:33N 39°58' E 000°54'14914.9
2014-Aug-20 01:33N 37°42' W 000°23'1414.5
2014-Aug-20 00:33N 37°31' W 000°35'1414.4
2014-Aug-19 23:33N 37°21' W 000°49'3014.5
2014-Aug-19 21:28N 37°01' W 001°17'1814.8
2014-Aug-19 20:14N 36°49' W 001°34'2414.7
2014-Aug-19 18:33N 36°31' W 001°55'16315.5
2014-Aug-19 08:03N 36°01' W 005°14'816.2
2014-Aug-19 07:33N 35°59' W 005°23'9114.5
2014-Aug-19 01:18N 35°11' W 006°58'  

Dump ship's entire track history